createdAt,value
2023-02-06T00:00:58.175Z,2.77
2023-02-06T00:03:25.257Z,2.69
2023-02-06T00:05:56.955Z,2.79
2023-02-06T00:08:24.234Z,2.97
2023-02-06T00:10:51.435Z,3.49
2023-02-06T00:13:19.128Z,3.44
2023-02-06T00:15:46.583Z,3.35
2023-02-06T00:18:15.377Z,3.15
2023-02-06T00:20:42.547Z,3.17
2023-02-06T00:23:09.674Z,3.31
2023-02-06T00:25:36.989Z,3.40
2023-02-06T00:28:04.750Z,3.45
2023-02-06T00:30:32.025Z,3.47
2023-02-06T00:32:59.359Z,3.74
2023-02-06T00:35:28.264Z,3.39
2023-02-06T00:37:55.581Z,3.67
2023-02-06T00:40:22.705Z,3.66
2023-02-06T00:42:49.843Z,3.55
2023-02-06T00:45:17.167Z,3.54
2023-02-06T00:47:44.199Z,3.88
2023-02-06T00:50:11.299Z,3.81
2023-02-06T00:52:40.719Z,4.12
2023-02-06T00:55:08.572Z,4.20
2023-02-06T00:57:35.803Z,3.90
2023-02-06T01:00:03.291Z,4.14
2023-02-06T01:02:30.565Z,4.26
2023-02-06T01:04:57.777Z,4.32
2023-02-06T01:07:24.980Z,4.83
2023-02-06T01:09:53.697Z,4.46
2023-02-06T01:12:20.818Z,4.90
2023-02-06T01:14:48.073Z,4.81
2023-02-06T01:17:15.530Z,5.34
2023-02-06T01:19:42.713Z,5.25
2023-02-06T01:22:10.217Z,5.18
2023-02-06T01:24:37.358Z,5.59
2023-02-06T01:27:06.028Z,5.50
2023-02-06T01:29:33.222Z,5.10
2023-02-06T01:32:00.661Z,5.12
2023-02-06T01:34:28.018Z,5.23
2023-02-06T01:36:55.397Z,5.16
2023-02-06T01:39:22.583Z,5.34
2023-02-06T01:41:50.264Z,5.28
2023-02-06T01:44:20.625Z,5.36
2023-02-06T01:46:49.758Z,5.34
2023-02-06T01:49:22.295Z,5.52
2023-02-06T01:51:51.846Z,5.63
2023-02-06T01:54:19.782Z,5.61
2023-02-06T01:56:51.841Z,5.62
2023-02-06T01:59:22.203Z,5.65
2023-02-06T02:01:49.758Z,5.81
2023-02-06T02:04:21.701Z,5.86
2023-02-06T02:07:04.850Z,5.76
2023-02-06T02:09:32.445Z,5.48
2023-02-06T02:11:59.804Z,5.62
2023-02-06T02:14:28.883Z,5.52
2023-02-06T02:17:13.706Z,5.22
2023-02-06T02:20:20.068Z,5.04
2023-02-06T02:23:00.119Z,5.47
2023-02-06T02:26:00.389Z,5.24
2023-02-06T02:29:08.708Z,5.63
2023-02-06T02:32:15.014Z,5.52
2023-02-06T02:35:05.470Z,5.84
2023-02-06T02:37:49.808Z,5.83
2023-02-06T02:40:28.430Z,5.56
2023-02-06T02:43:07.893Z,5.34
2023-02-06T02:45:46.193Z,5.24
2023-02-06T02:48:19.011Z,5.49
2023-02-06T02:50:47.890Z,5.56
2023-02-06T02:53:15.133Z,5.77
2023-02-06T02:55:42.504Z,5.53
2023-02-06T02:58:15.187Z,5.79
2023-02-06T03:00:49.147Z,5.50
2023-02-06T03:03:22.887Z,5.47
2023-02-06T03:06:12.106Z,5.27
2023-02-06T03:08:53.166Z,5.18
2023-02-06T03:11:22.373Z,5.46
2023-02-06T03:13:55.759Z,5.01
2023-02-06T03:16:29.173Z,4.76
2023-02-06T03:19:02.725Z,5.29
2023-02-06T03:21:35.102Z,5.11
2023-02-06T03:24:10.136Z,4.65
2023-02-06T03:26:41.021Z,4.35
2023-02-06T03:29:13.703Z,4.90
2023-02-06T03:31:49.657Z,4.62
2023-02-06T03:34:23.223Z,4.76
2023-02-06T03:36:53.616Z,4.49
2023-02-06T03:39:23.038Z,4.70
2023-02-06T03:41:54.123Z,4.82
2023-02-06T03:44:28.103Z,4.89
2023-02-06T03:46:59.304Z,4.76
2023-02-06T03:49:31.003Z,5.13
2023-02-06T03:52:03.985Z,5.00
2023-02-06T03:54:35.365Z,4.58
2023-02-06T03:57:05.965Z,4.92
2023-02-06T03:59:33.166Z,5.08
2023-02-06T04:02:04.059Z,5.20
2023-02-06T04:04:34.933Z,4.89
2023-02-06T04:07:13.054Z,4.91
2023-02-06T04:09:40.370Z,4.91
2023-02-06T04:12:08.091Z,5.09
2023-02-06T04:14:35.689Z,5.69
2023-02-06T04:17:03.072Z,5.53
2023-02-06T04:19:30.370Z,5.18
2023-02-06T04:21:58.296Z,5.20
2023-02-06T04:24:28.027Z,5.68
2023-02-06T04:26:56.129Z,5.49
2023-02-06T04:29:23.271Z,5.54
2023-02-06T04:31:50.473Z,5.70
2023-02-06T04:34:17.872Z,5.14
2023-02-06T04:36:44.951Z,5.33
2023-02-06T04:39:12.059Z,5.66
2023-02-06T04:41:40.763Z,5.47
2023-02-06T04:44:07.809Z,5.59
2023-02-06T04:46:35.054Z,5.89
2023-02-06T04:49:02.436Z,6.17
2023-02-06T04:51:29.535Z,6.26
2023-02-06T04:53:56.710Z,6.16
2023-02-06T04:56:23.818Z,6.04
2023-02-06T04:58:52.410Z,5.79
2023-02-06T05:01:20.440Z,5.88
2023-02-06T05:03:47.850Z,5.42
2023-02-06T05:06:15.431Z,5.72
2023-02-06T05:08:42.604Z,6.08
2023-02-06T05:11:09.623Z,6.16
2023-02-06T05:13:37.063Z,6.21
2023-02-06T05:16:11.058Z,6.63
2023-02-06T05:18:39.142Z,6.55
2023-02-06T05:21:07.349Z,6.26
2023-02-06T05:23:34.783Z,6.17
2023-02-06T05:26:02.241Z,6.26
2023-02-06T05:28:29.824Z,6.22
2023-02-06T05:30:57.657Z,6.31
2023-02-06T05:33:26.588Z,6.50
2023-02-06T05:35:53.921Z,6.03
2023-02-06T05:38:21.172Z,5.57
2023-02-06T05:40:51.152Z,5.71
2023-02-06T05:43:18.262Z,5.75
2023-02-06T05:45:45.324Z,6.19
2023-02-06T05:48:12.364Z,6.21
2023-02-06T05:50:43.257Z,5.96
2023-02-06T05:53:10.451Z,5.83
2023-02-06T05:55:37.896Z,5.98
2023-02-06T05:58:06.380Z,6.14
2023-02-06T06:00:34.487Z,6.03
2023-02-06T06:03:01.790Z,5.98
2023-02-06T06:05:28.847Z,6.29
2023-02-06T06:07:57.375Z,6.29
2023-02-06T06:10:24.590Z,6.45
2023-02-06T06:12:51.725Z,6.47
2023-02-06T06:15:19.051Z,6.84
2023-02-06T06:17:46.128Z,7.06
2023-02-06T06:20:13.262Z,7.01
2023-02-06T06:22:40.590Z,6.45
2023-02-06T06:25:09.231Z,6.82
2023-02-06T06:27:36.652Z,6.57
2023-02-06T06:30:04.190Z,7.12
2023-02-06T06:32:31.469Z,6.77
2023-02-06T06:34:58.756Z,6.94
2023-02-06T06:37:25.929Z,6.50
2023-02-06T06:39:53.210Z,6.88
2023-02-06T06:42:21.844Z,6.79
2023-02-06T06:44:48.910Z,7.09
2023-02-06T06:47:16.097Z,7.20
2023-02-06T06:49:43.328Z,7.41
2023-02-06T06:52:23.020Z,7.17
2023-02-06T06:54:52.428Z,7.60
2023-02-06T06:57:21.302Z,8.09
2023-02-06T06:59:48.968Z,7.63
2023-02-06T07:02:16.207Z,7.61
2023-02-06T07:04:43.848Z,7.35
2023-02-06T07:07:10.954Z,8.24
2023-02-06T07:09:38.252Z,8.26
2023-02-06T07:12:06.111Z,8.52
2023-02-06T07:14:34.654Z,8.45
2023-02-06T07:17:01.869Z,8.45
2023-02-06T07:19:29.089Z,8.18
2023-02-06T07:21:56.256Z,7.96
2023-02-06T07:24:23.530Z,8.53
2023-02-06T07:26:50.729Z,7.77
2023-02-06T07:29:17.953Z,8.01
2023-02-06T07:31:46.661Z,7.41
2023-02-06T07:34:14.335Z,7.45
2023-02-06T07:36:41.416Z,7.96
2023-02-06T07:39:09.095Z,7.51
2023-02-06T07:41:36.253Z,7.23
2023-02-06T07:44:03.549Z,7.13
2023-02-06T07:46:30.652Z,6.93
2023-02-06T07:48:59.391Z,6.85
2023-02-06T07:51:26.509Z,6.87
2023-02-06T07:53:53.770Z,6.70
2023-02-06T07:56:21.813Z,6.94
2023-02-06T07:58:51.588Z,6.79
2023-02-06T08:01:19.624Z,7.13
2023-02-06T08:03:48.910Z,7.30
2023-02-06T08:06:19.171Z,6.86
2023-02-06T08:08:46.949Z,6.95
2023-02-06T08:11:15.990Z,5.66
2023-02-06T08:13:44.288Z,6.04
2023-02-06T08:16:15.193Z,6.78
2023-02-06T08:18:42.653Z,6.28
2023-02-06T08:21:12.669Z,6.14
2023-02-06T08:23:42.449Z,6.58
2023-02-06T08:26:12.928Z,7.31
2023-02-06T08:28:42.247Z,6.94
2023-02-06T08:31:11.296Z,8.83
2023-02-06T08:33:39.568Z,7.74
2023-02-06T08:36:08.728Z,7.37
2023-02-06T08:38:36.236Z,7.33
2023-02-06T08:41:05.938Z,8.05
2023-02-06T08:43:33.269Z,8.22
2023-02-06T08:46:00.627Z,7.98
2023-02-06T08:48:27.769Z,8.26
2023-02-06T08:51:03.270Z,7.52
2023-02-06T08:53:30.393Z,8.61
2023-02-06T08:56:01.554Z,7.88
2023-02-06T08:58:30.583Z,8.00
2023-02-06T09:00:58.268Z,7.72
2023-02-06T09:03:25.629Z,8.31
2023-02-06T09:05:54.113Z,7.99
2023-02-06T09:08:22.990Z,7.40
2023-02-06T09:10:50.028Z,7.56
2023-02-06T09:13:17.169Z,8.20
2023-02-06T09:15:51.332Z,7.91
2023-02-06T09:18:18.591Z,8.69
2023-02-06T09:20:45.870Z,6.38
2023-02-06T09:23:12.996Z,7.94
2023-02-06T09:25:40.718Z,7.02
2023-02-06T09:28:07.916Z,7.39
2023-02-06T09:30:35.118Z,7.42
2023-02-06T09:33:03.842Z,7.52
2023-02-06T09:35:31.102Z,7.22
2023-02-06T09:37:58.204Z,7.49
2023-02-06T09:40:29.267Z,6.77
2023-02-06T09:42:57.442Z,8.42
2023-02-06T09:45:28.480Z,7.82
2023-02-06T09:48:00.140Z,8.23
2023-02-06T09:50:39.364Z,8.49
2023-02-06T09:53:21.160Z,8.20
2023-02-06T09:55:55.856Z,8.30
2023-02-06T09:58:33.962Z,7.87
2023-02-06T10:01:12.661Z,8.00
2023-02-06T10:04:04.374Z,7.96
2023-02-06T10:06:44.345Z,8.61
2023-02-06T10:09:17.812Z,8.32
2023-02-06T10:11:51.240Z,8.59
2023-02-06T10:14:27.051Z,8.51
2023-02-06T10:17:00.376Z,8.61
2023-02-06T10:19:41.670Z,8.92
2023-02-06T10:22:16.092Z,8.76
2023-02-06T10:24:53.711Z,8.90
2023-02-06T10:27:21.292Z,9.63
2023-02-06T10:29:48.408Z,9.12
2023-02-06T10:32:33.024Z,9.36
2023-02-06T10:35:14.577Z,8.83
2023-02-06T10:38:08.701Z,9.02
2023-02-06T10:40:49.479Z,9.29
2023-02-06T10:43:31.425Z,9.09
2023-02-06T10:46:13.965Z,9.23
2023-02-06T10:48:49.598Z,9.37
2023-02-06T10:51:24.873Z,9.00
2023-02-06T10:53:57.749Z,9.21
2023-02-06T10:56:29.748Z,8.96
2023-02-06T10:59:01.499Z,9.08
2023-02-06T11:01:35.955Z,8.95
2023-02-06T11:04:12.081Z,9.17
2023-02-06T11:06:41.746Z,9.06
2023-02-06T11:09:10.951Z,8.87
2023-02-06T11:11:40.901Z,9.18
2023-02-06T11:14:16.817Z,9.14
2023-02-06T11:16:46.272Z,8.52
2023-02-06T11:19:19.263Z,9.25
2023-02-06T11:22:08.897Z,9.42
2023-02-06T11:24:38.744Z,9.30
2023-02-06T11:27:16.379Z,9.24
2023-02-06T11:29:49.854Z,9.28
2023-02-06T11:32:34.278Z,8.94
2023-02-06T11:35:05.703Z,9.16
2023-02-06T11:37:37.418Z,9.19
2023-02-06T11:40:26.437Z,9.14
2023-02-06T11:43:15.080Z,8.96
2023-02-06T11:45:42.642Z,9.10
2023-02-06T11:48:33.523Z,9.46
2023-02-06T11:51:01.608Z,8.84
2023-02-06T11:53:29.018Z,8.93
2023-02-06T11:56:14.121Z,9.52
2023-02-06T11:58:41.359Z,8.53
2023-02-06T12:01:16.323Z,9.12
2023-02-06T12:03:53.959Z,9.00
2023-02-06T12:06:29.631Z,8.93
2023-02-06T12:08:59.900Z,9.15
2023-02-06T12:11:36.597Z,8.75
2023-02-06T12:14:09.463Z,8.91
2023-02-06T12:16:42.157Z,9.56
2023-02-06T12:19:19.891Z,10.03
2023-02-06T12:21:51.097Z,9.71
2023-02-06T12:24:32.228Z,9.65
2023-02-06T12:27:13.915Z,9.41
2023-02-06T12:29:46.448Z,9.47
2023-02-06T12:32:21.358Z,9.62
2023-02-06T12:34:53.332Z,9.47
2023-02-06T12:37:27.567Z,9.55
2023-02-06T12:39:55.020Z,8.97
2023-02-06T12:42:43.154Z,9.56
2023-02-06T12:45:26.688Z,9.56
2023-02-06T12:47:59.959Z,9.14
2023-02-06T12:50:32.293Z,9.48
2023-02-06T12:53:06.626Z,10.15
2023-02-06T12:55:39.488Z,9.45
2023-02-06T12:58:25.912Z,10.15
2023-02-06T13:01:29.329Z,9.92
2023-02-06T13:04:04.078Z,9.87
2023-02-06T13:06:43.276Z,10.14
2023-02-06T13:09:21.957Z,9.85
2023-02-06T13:11:49.417Z,10.17
2023-02-06T13:14:23.025Z,10.07
2023-02-06T13:16:55.062Z,10.01
2023-02-06T13:19:26.610Z,10.12
2023-02-06T13:22:34.728Z,9.76
2023-02-06T13:25:36.461Z,10.60
2023-02-06T13:28:50.044Z,10.48
2023-02-06T13:31:33.378Z,10.38
2023-02-06T13:34:14.183Z,10.44
2023-02-06T13:36:52.878Z,10.58
2023-02-06T13:39:40.976Z,11.03
2023-02-06T13:42:39.804Z,10.33
2023-02-06T13:45:20.196Z,10.65
2023-02-06T13:48:20.269Z,11.12
2023-02-06T13:51:28.758Z,10.56
2023-02-06T13:54:34.521Z,11.12
2023-02-06T13:57:28.749Z,10.43
2023-02-06T14:00:01.841Z,10.64
2023-02-06T14:02:39.366Z,11.26
2023-02-06T14:05:14.659Z,10.78
2023-02-06T14:08:01.601Z,11.17
2023-02-06T14:10:57.063Z,10.87
2023-02-06T14:13:42.606Z,10.84
2023-02-06T14:16:27.359Z,10.73
2023-02-06T14:19:02.202Z,11.13
2023-02-06T14:21:42.235Z,11.17
2023-02-06T14:24:31.878Z,11.40
2023-02-06T14:27:22.419Z,10.97
2023-02-06T14:30:03.553Z,12.00
2023-02-06T14:32:41.712Z,11.45
2023-02-06T14:35:54.876Z,11.44
2023-02-06T14:38:49.012Z,11.19
2023-02-06T14:41:17.912Z,11.09
2023-02-06T14:43:48.951Z,11.51
2023-02-06T14:46:19.430Z,11.27
2023-02-06T14:48:51.593Z,10.90
2023-02-06T14:51:25.484Z,11.34
2023-02-06T14:53:56.814Z,11.39
2023-02-06T14:56:30.765Z,11.45
2023-02-06T14:59:08.857Z,11.56
2023-02-06T15:01:36.177Z,11.78
2023-02-06T15:04:12.156Z,11.55
2023-02-06T15:06:42.243Z,11.01
2023-02-06T15:09:24.694Z,8.33
2023-02-06T15:11:53.773Z,10.61
2023-02-06T15:14:24.534Z,11.01
2023-02-06T15:16:52.594Z,11.71
2023-02-06T15:19:22.478Z,11.27
2023-02-06T15:21:55.497Z,11.31
2023-02-06T15:24:45.780Z,11.77
2023-02-06T15:27:25.277Z,11.57
2023-02-06T15:29:53.262Z,12.16
2023-02-06T15:32:27.788Z,11.71
2023-02-06T15:34:55.359Z,11.19
2023-02-06T15:37:27.660Z,11.14
2023-02-06T15:40:09.113Z,11.16
2023-02-06T15:42:37.382Z,12.14
2023-02-06T15:45:05.923Z,11.53
2023-02-06T15:47:34.041Z,10.99
2023-02-06T15:50:01.592Z,11.75
2023-02-06T15:52:35.639Z,11.59
2023-02-06T15:55:04.948Z,11.55
2023-02-06T15:57:37.623Z,11.05
2023-02-06T16:00:06.402Z,11.19
2023-02-06T16:02:37.190Z,11.65
2023-02-06T16:05:06.681Z,11.29
2023-02-06T16:07:35.675Z,11.65
2023-02-06T16:10:20.622Z,10.94
2023-02-06T16:12:50.199Z,10.73
2023-02-06T16:15:32.858Z,10.90
2023-02-06T16:18:03.375Z,10.78
2023-02-06T16:20:35.818Z,10.82
2023-02-06T16:23:23.024Z,10.90
2023-02-06T16:26:04.940Z,10.99
2023-02-06T16:28:32.724Z,10.55
2023-02-06T16:31:02.810Z,10.30
2023-02-06T16:33:37.540Z,10.19
2023-02-06T16:36:05.601Z,9.90
2023-02-06T16:38:33.243Z,9.92
2023-02-06T16:41:01.974Z,6.45
2023-02-06T16:43:31.436Z,6.12
2023-02-06T16:45:58.631Z,7.18
2023-02-06T16:48:25.973Z,8.50
2023-02-06T16:50:53.251Z,9.26
2023-02-06T16:53:23.457Z,9.25
2023-02-06T16:55:52.084Z,9.23
2023-02-06T16:58:24.383Z,9.37
2023-02-06T17:00:51.823Z,9.30
2023-02-06T17:03:19.362Z,9.61
2023-02-06T17:05:48.811Z,9.48
2023-02-06T17:08:19.446Z,9.47
2023-02-06T17:10:48.133Z,9.58
2023-02-06T17:13:16.856Z,9.62
2023-02-06T17:15:46.751Z,8.75
2023-02-06T17:18:16.308Z,9.55
2023-02-06T17:20:45.929Z,9.33
2023-02-06T17:23:14.296Z,8.70
2023-02-06T17:25:43.410Z,8.55
2023-02-06T17:28:14.780Z,8.89
2023-02-06T17:30:42.285Z,8.55
2023-02-06T17:33:11.431Z,8.63
2023-02-06T17:35:38.733Z,9.53
2023-02-06T17:38:07.549Z,10.72
2023-02-06T17:40:37.898Z,9.54
2023-02-06T17:43:06.343Z,8.87
2023-02-06T17:45:35.195Z,8.31
2023-02-06T17:48:02.821Z,8.42
2023-02-06T17:50:31.970Z,8.65
2023-02-06T17:52:59.237Z,8.36
2023-02-06T17:55:27.695Z,7.99
2023-02-06T17:57:55.350Z,8.18
2023-02-06T18:00:24.793Z,8.01
2023-02-06T18:02:54.131Z,8.10
2023-02-06T18:05:22.816Z,8.22
2023-02-06T18:07:52.321Z,8.44
2023-02-06T18:10:21.851Z,8.09
2023-02-06T18:12:49.312Z,7.87
2023-02-06T18:15:17.644Z,7.90
2023-02-06T18:17:45.043Z,7.78
2023-02-06T18:20:12.938Z,7.73
2023-02-06T18:22:40.102Z,8.32
2023-02-06T18:25:11.639Z,9.01
2023-02-06T18:27:41.493Z,7.56
2023-02-06T18:30:10.654Z,7.76
2023-02-06T18:32:39.267Z,7.43
2023-02-06T18:35:09.355Z,8.19
2023-02-06T18:37:36.587Z,8.06
2023-02-06T18:40:04.546Z,7.67
2023-02-06T18:42:33.589Z,8.00
2023-02-06T18:45:02.654Z,7.89
2023-02-06T18:47:31.347Z,8.12
2023-02-06T18:49:58.507Z,7.77
2023-02-06T18:52:25.835Z,8.01
2023-02-06T18:54:52.885Z,8.00
2023-02-06T18:57:20.126Z,7.97
2023-02-06T18:59:50.087Z,8.35
2023-02-06T19:02:17.304Z,8.33
2023-02-06T19:04:44.647Z,8.10
2023-02-06T19:07:11.829Z,7.95
2023-02-06T19:09:39.412Z,8.17
2023-02-06T19:12:07.174Z,8.37
2023-02-06T19:14:34.502Z,8.54
2023-02-06T19:17:03.214Z,8.44
2023-02-06T19:19:30.395Z,8.31
2023-02-06T19:21:57.574Z,8.32
2023-02-06T19:24:24.930Z,8.47
2023-02-06T19:26:52.336Z,8.27
2023-02-06T19:29:34.377Z,8.74
2023-02-06T19:32:04.906Z,8.66
2023-02-06T19:34:34.905Z,8.62
2023-02-06T19:37:02.252Z,9.02
2023-02-06T19:39:29.369Z,9.02
2023-02-06T19:41:56.610Z,8.86
2023-02-06T19:44:23.808Z,8.60
2023-02-06T19:46:51.063Z,8.82
2023-02-06T19:49:19.709Z,8.50
2023-02-06T19:51:46.906Z,8.48
2023-02-06T19:54:14.047Z,8.46
2023-02-06T19:56:43.626Z,8.37
2023-02-06T19:59:13.868Z,8.27
2023-02-06T20:01:41.045Z,8.90
2023-02-06T20:04:10.148Z,9.03
2023-02-06T20:06:38.905Z,8.62
2023-02-06T20:09:06.311Z,8.49
2023-02-06T20:11:34.270Z,8.79
2023-02-06T20:14:02.048Z,8.79
2023-02-06T20:16:35.656Z,8.78
2023-02-06T20:19:07.548Z,8.24
2023-02-06T20:21:39.049Z,9.00
2023-02-06T20:24:10.734Z,10.36
2023-02-06T20:26:41.697Z,10.16
2023-02-06T20:29:16.349Z,9.46
2023-02-06T20:31:43.902Z,8.84
2023-02-06T20:34:11.333Z,8.82
2023-02-06T20:36:39.171Z,9.04
2023-02-06T20:39:10.393Z,8.68
2023-02-06T20:41:38.476Z,9.13
2023-02-06T20:44:06.918Z,9.06
2023-02-06T20:46:34.130Z,9.17
2023-02-06T20:49:03.412Z,9.17
2023-02-06T20:51:31.597Z,9.77
2023-02-06T20:53:59.292Z,8.73
2023-02-06T20:56:28.330Z,6.86
2023-02-06T20:58:55.606Z,9.53
2023-02-06T21:01:25.425Z,8.74
2023-02-06T21:03:56.306Z,8.78
2023-02-06T21:06:24.056Z,8.75
2023-02-06T21:08:52.005Z,9.23
2023-02-06T21:11:19.387Z,9.18
2023-02-06T21:13:48.427Z,9.63
2023-02-06T21:16:15.565Z,10.23
2023-02-06T21:18:42.942Z,10.05
2023-02-06T21:21:12.991Z,10.29
2023-02-06T21:23:42.503Z,10.24
2023-02-06T21:26:11.488Z,10.72
2023-02-06T21:28:40.392Z,10.87
2023-02-06T21:31:12.813Z,11.06
2023-02-06T21:33:40.833Z,11.05
2023-02-06T21:36:08.354Z,11.10
2023-02-06T21:38:36.254Z,11.09
2023-02-06T21:41:05.433Z,11.06
2023-02-06T21:43:32.991Z,11.11
2023-02-06T21:46:00.636Z,11.43
2023-02-06T21:48:29.740Z,11.38
2023-02-06T21:50:57.318Z,11.89
2023-02-06T21:53:25.023Z,12.56
2023-02-06T21:55:52.198Z,11.55
2023-02-06T21:58:19.330Z,10.86
2023-02-06T22:00:48.077Z,11.16
2023-02-06T22:03:15.564Z,11.24
2023-02-06T22:05:44.134Z,11.35
2023-02-06T22:08:11.300Z,10.83
2023-02-06T22:10:38.874Z,11.32
2023-02-06T22:13:06.292Z,11.18
2023-02-06T22:15:34.294Z,11.89
2023-02-06T22:18:01.930Z,12.13
2023-02-06T22:20:29.592Z,12.22
2023-02-06T22:22:58.233Z,12.60
2023-02-06T22:25:26.517Z,12.74
2023-02-06T22:27:55.388Z,13.27
2023-02-06T22:30:22.617Z,14.31
2023-02-06T22:32:49.848Z,14.85
2023-02-06T22:35:17.267Z,14.67
2023-02-06T22:37:44.661Z,15.02
2023-02-06T22:40:13.446Z,14.90
2023-02-06T22:42:40.550Z,14.61
2023-02-06T22:45:08.405Z,14.69
2023-02-06T22:47:35.587Z,15.08
2023-02-06T22:50:02.666Z,14.93
2023-02-06T22:52:29.885Z,15.30
2023-02-06T22:54:57.124Z,15.00
2023-02-06T22:57:25.806Z,16.27
2023-02-06T22:59:52.925Z,15.83
2023-02-06T23:02:20.204Z,15.43
2023-02-06T23:04:47.427Z,15.83
2023-02-06T23:07:14.611Z,14.94
2023-02-06T23:09:41.832Z,14.86
2023-02-06T23:12:09.191Z,14.44
2023-02-06T23:14:37.794Z,14.00
2023-02-06T23:17:04.992Z,14.16
2023-02-06T23:19:32.449Z,13.53
2023-02-06T23:21:59.708Z,13.31
2023-02-06T23:24:26.937Z,12.83
2023-02-06T23:26:54.092Z,12.93
2023-02-06T23:29:22.511Z,12.19
2023-02-06T23:31:51.617Z,12.50
2023-02-06T23:34:20.498Z,12.08
2023-02-06T23:36:47.775Z,11.89
2023-02-06T23:39:15.431Z,12.29
2023-02-06T23:41:42.627Z,12.06
2023-02-06T23:44:11.897Z,12.04
2023-02-06T23:46:40.364Z,12.18
2023-02-06T23:49:10.171Z,12.30
2023-02-06T23:51:38.370Z,11.78
2023-02-06T23:54:06.882Z,11.81
2023-02-06T23:56:34.893Z,10.98
2023-02-06T23:59:03.266Z,11.63
